Time;durP1;ratioP1;P1;durP2;ratioP2;P2;SDS_P1;SDS_P2;PMS_P1;PMS_P2;Temp;Humidity;BMP_temperature;BMP_pressure;BME280_temperature;BME280_humidity;BME280_pressure;Samples;Min_cycle;Max_cycle;Signal;HPM_P1;HPM_P2
2023/05/16 00:00:34;;;;;;;;;;;;;;;;;;6212673;22;19919;-91
2023/05/16 00:03:00;;;;;;;;;;;;;;;;;;6214069;22;19924;-92
2023/05/16 00:05:26;;;;;;;;;;;;;;;;;;6239527;22;19926;-92
2023/05/16 00:07:52;;;;;;;;;;;;;;;;;;6214553;22;19923;-92
2023/05/16 00:10:18;;;;;;;;;;;;;;;;;;6240499;22;19923;-91
2023/05/16 00:12:44;;;;;;;;;;;;;;;;;;6237621;22;19926;-91
2023/05/16 00:15:13;;;;;;;;;;;;;;;;;;6241256;22;19919;-92
2023/05/16 00:17:39;;;;;;;;;;;;;;;;;;6240137;22;19924;-92
2023/05/16 00:20:10;;;;;;;;;;;;;;;;;;6240891;22;19915;-92
2023/05/16 00:22:36;;;;;;;;;;;;;;;;;;6238947;22;19919;-92
2023/05/16 00:25:02;;;;;;;;;;;;;;;;;;6242764;22;19922;-92
2023/05/16 00:27:28;;;;;;;;;;;;;;;;;;6209921;22;20008;-92
2023/05/16 00:29:54;;;;;;;;;;;;;;;;;;6217690;22;19919;-92
2023/05/16 00:32:20;;;;;;;;;;;;;;;;;;6239194;22;19930;-91
2023/05/16 00:34:46;;;;;;;;;;;;;;;;;;6239457;22;20386;-91
2023/05/16 00:37:12;;;;;;;;;;;;;;;;;;6215786;22;20007;-92
2023/05/16 00:39:39;;;;;;;;;;;;;;;;;;6214208;22;19919;-91
2023/05/16 00:42:05;;;;;;;;;;;;;;;;;;6214572;22;20327;-91
2023/05/16 00:44:31;;;;;;;;;;;;;;;;;;6238558;22;19919;-91
2023/05/16 00:46:59;;;;;;;;;;;;;;;;;;6228524;22;19955;-92
2023/05/16 00:49:25;;;;;;;;;;;;;;;;;;6253188;22;19930;-91
2023/05/16 00:51:50;;;;;;;;;;;;;;;;;;6243760;22;19919;-91
2023/05/16 00:54:16;;;;;;;;;;;;;;;;;;6213430;22;19919;-92
2023/05/16 00:56:42;;;;;;;;;;;;;;;;;;6212787;22;19926;-91
2023/05/16 00:59:08;;;;;;;;;;;;;;;;;;6214280;22;20344;-91
2023/05/16 01:01:35;;;;;;;;;;;;;;;;;;6209858;22;19923;-91
2023/05/16 01:04:01;;;;;;;;;;;;;;;;;;6212807;22;19954;-91
2023/05/16 01:06:27;;;;;;;;;;;;;;;;;;6237114;22;19923;-91
2023/05/16 01:08:53;;;;;;;;;;;;;;;;;;6215696;22;19915;-92
2023/05/16 01:11:18;;;;;;;;;;;;;;;;;;6239296;22;20204;-91
2023/05/16 01:13:45;;;;;;;;;;;;;;;;;;6211255;22;19945;-91
2023/05/16 01:16:11;;;;;;;;;;;;;;;;;;6213449;22;19969;-91
2023/05/16 01:18:36;;;;;;;;;;;;;;;;;;6212885;22;19923;-92
2023/05/16 01:21:02;;;;;;;;;;;;;;;;;;6215232;22;19915;-92
2023/05/16 01:23:28;;;;;;;;;;;;;;;;;;6239818;22;19990;-92
2023/05/16 01:25:54;;;;;;;;;;;;;;;;;;6216970;22;20239;-91
2023/05/16 01:28:20;;;;;;;;;;;;;;;;;;6214926;22;19942;-91
2023/05/16 01:30:46;;;;;;;;;;;;;;;;;;6237979;22;19992;-91
2023/05/16 01:33:12;;;;;;;;;;;;;;;;;;6213235;22;19923;-90
2023/05/16 01:35:38;;;;;;;;;;;;;;;;;;6210740;22;19942;-92
2023/05/16 01:38:04;;;;;;;;;;;;;;;;;;6239948;22;19925;-92
2023/05/16 01:40:30;;;;;;;;;;;;;;;;;;6237682;22;19926;-92
2023/05/16 01:42:56;;;;;;;;;;;;;;;;;;6214245;22;19919;-91
2023/05/16 01:45:22;;;;;;;;;;;;;;;;;;6210191;22;19919;-91
2023/05/16 01:47:48;;;;;;;;;;;;;;;;;;6212781;22;19924;-91
2023/05/16 01:50:14;;;;;;;;;;;;;;;;;;6239069;22;19925;-91
2023/05/16 01:52:40;;;;;;;;;;;;;;;;;;6211185;22;20807;-91
2023/05/16 01:55:06;;;;;;;;;;;;;;;;;;6214224;22;19925;-91
2023/05/16 01:57:32;;;;;;;;;;;;;;;;;;6211354;22;19915;-92
2023/05/16 01:59:58;;;;;;;;;;;;;;;;;;6240091;22;19916;-91
2023/05/16 02:02:24;;;;;;;;;;;;;;;;;;6235430;22;19990;-90
2023/05/16 02:04:50;;;;;;;;;;;;;;;;;;6238337;22;20352;-91
2023/05/16 02:07:16;;;;;;;;;;;;;;;;;;6213639;22;19919;-91
2023/05/16 02:09:42;;;;;;;;;;;;;;;;;;6212963;22;20406;-90
2023/05/16 02:12:08;;;;;;;;;;;;;;;;;;6212152;22;19931;-91
2023/05/16 02:14:34;;;;;;;;;;;;;;;;;;6236452;22;19978;-91
2023/05/16 02:17:00;;;;;;;;;;;;;;;;;;6238423;22;19923;-91
2023/05/16 02:19:25;;;;;;;;;;;;;;;;;;6237418;22;19925;-91
2023/05/16 02:21:51;;;;;;;;;;;;;;;;;;6211964;22;19919;-90
2023/05/16 02:24:17;;;;;;;;;;;;;;;;;;6213141;22;19946;-91
2023/05/16 02:26:43;;;;;;;;;;;;;;;;;;6209774;22;20001;-91
2023/05/16 02:29:10;;;;;;;;;;;;;;;;;;6241204;22;19930;-91
2023/05/16 02:31:35;;;;;;;;;;;;;;;;;;6235345;22;19943;-91
2023/05/16 02:34:02;;;;;;;;;;;;;;;;;;6237799;22;19965;-91
2023/05/16 02:36:28;;;;;;;;;;;;;;;;;;6236996;22;19966;-91
2023/05/16 02:38:54;;;;;;;;;;;;;;;;;;6239809;22;19919;-92
2023/05/16 02:41:21;;;;;;;;;;;;;;;;;;6240239;22;19927;-92
2023/05/16 02:43:47;;;;;;;;;;;;;;;;;;6237362;22;19915;-91
2023/05/16 02:46:13;;;;;;;;;;;;;;;;;;6213374;22;20312;-91
2023/05/16 02:48:39;;;;;;;;;;;;;;;;;;6210897;22;19915;-91
2023/05/16 02:51:05;;;;;;;;;;;;;;;;;;6239893;22;19954;-91
2023/05/16 02:53:31;;;;;;;;;;;;;;;;;;6213656;22;19915;-91
2023/05/16 02:55:57;;;;;;;;;;;;;;;;;;6240025;22;19915;-92
2023/05/16 02:58:23;;;;;;;;;;;;;;;;;;6238594;22;19919;-91
2023/05/16 03:00:49;;;;;;;;;;;;;;;;;;6215435;22;19923;-92
2023/05/16 03:03:15;;;;;;;;;;;;;;;;;;6240417;22;19954;-91
2023/05/16 03:05:41;;;;;;;;;;;;;;;;;;6213070;22;20171;-92
2023/05/16 03:08:07;;;;;;;;;;;;;;;;;;6216909;22;19926;-91
2023/05/16 03:10:33;;;;;;;;;;;;;;;;;;6214952;22;19923;-91
2023/05/16 03:12:59;;;;;;;;;;;;;;;;;;6215815;22;20240;-91
2023/05/16 03:15:25;;;;;;;;;;;;;;;;;;6213061;22;19942;-91
2023/05/16 03:17:51;;;;;;;;;;;;;;;;;;6214663;22;19925;-92
2023/05/16 03:20:17;;;;;;;;;;;;;;;;;;6238818;22;20263;-91
2023/05/16 03:22:44;;;;;;;;;;;;;;;;;;6212851;22;19926;-91
2023/05/16 03:25:10;;;;;;;;;;;;;;;;;;6239944;22;19962;-91
2023/05/16 03:27:36;;;;;;;;;;;;;;;;;;6211559;22;19923;-91
2023/05/16 03:30:02;;;;;;;;;;;;;;;;;;6214132;22;19922;-90
2023/05/16 03:32:27;;;;;;;;;;;;;;;;;;6239384;22;19915;-92
2023/05/16 03:34:53;;;;;;;;;;;;;;;;;;6240766;22;19927;-91
2023/05/16 03:37:22;;;;;;;;;;;;;;;;;;6240050;22;19969;-91
2023/05/16 03:39:48;;;;;;;;;;;;;;;;;;6214872;22;20324;-91
2023/05/16 03:42:14;;;;;;;;;;;;;;;;;;6217194;22;19930;-91
2023/05/16 03:44:40;;;;;;;;;;;;;;;;;;6215034;22;20014;-92
2023/05/16 03:47:06;;;;;;;;;;;;;;;;;;6215892;22;19975;-91
2023/05/16 03:49:32;;;;;;;;;;;;;;;;;;6240736;22;19919;-91
2023/05/16 03:51:58;;;;;;;;;;;;;;;;;;6240124;22;19994;-91
2023/05/16 03:54:24;;;;;;;;;;;;;;;;;;6238712;22;19962;-91
2023/05/16 03:56:50;;;;;;;;;;;;;;;;;;6239027;22;19927;-91
2023/05/16 03:59:16;;;;;;;;;;;;;;;;;;6216043;22;19950;-91
2023/05/16 04:01:42;;;;;;;;;;;;;;;;;;6211599;22;20947;-92
2023/05/16 04:04:08;;;;;;;;;;;;;;;;;;6239872;22;19927;-91
2023/05/16 04:06:34;;;;;;;;;;;;;;;;;;6236817;22;19969;-91
2023/05/16 04:09:00;;;;;;;;;;;;;;;;;;6216090;22;19927;-91
2023/05/16 04:11:26;;;;;;;;;;;;;;;;;;6237561;22;19923;-91
2023/05/16 04:13:53;;;;;;;;;;;;;;;;;;6218873;22;19922;-92
2023/05/16 04:16:18;;;;;;;;;;;;;;;;;;6229919;22;20036;-91
2023/05/16 04:18:44;;;;;;;;;;;;;;;;;;6251266;22;19915;-91
2023/05/16 04:21:13;;;;;;;;;;;;;;;;;;6227079;22;19930;-91
2023/05/16 04:23:39;;;;;;;;;;;;;;;;;;6252083;22;19930;-91
2023/05/16 04:26:05;;;;;;;;;;;;;;;;;;6225797;22;19915;-91
2023/05/16 04:28:31;;;;;;;;;;;;;;;;;;6214492;22;20351;-91
2023/05/16 04:30:57;;;;;;;;;;;;;;;;;;6215311;22;19958;-91
2023/05/16 04:33:23;;;;;;;;;;;;;;;;;;6235899;22;19965;-91
2023/05/16 04:35:49;;;;;;;;;;;;;;;;;;6242268;22;20006;-91
2023/05/16 04:38:15;;;;;;;;;;;;;;;;;;6213643;22;19930;-91
2023/05/16 04:40:42;;;;;;;;;;;;;;;;;;6212129;22;20854;-90
2023/05/16 04:43:07;;;;;;;;;;;;;;;;;;6215226;22;19922;-91
2023/05/16 04:45:33;;;;;;;;;;;;;;;;;;6238826;22;19919;-91
2023/05/16 04:48:00;;;;;;;;;;;;;;;;;;6213852;22;20045;-90
2023/05/16 04:50:26;;;;;;;;;;;;;;;;;;6236458;22;19926;-91
2023/05/16 04:52:52;;;;;;;;;;;;;;;;;;6215202;22;19919;-91
2023/05/16 04:55:17;;;;;;;;;;;;;;;;;;6240101;22;20636;-92
2023/05/16 04:57:44;;;;;;;;;;;;;;;;;;6211537;22;19926;-92
2023/05/16 05:00:10;;;;;;;;;;;;;;;;;;6212472;22;19923;-92
2023/05/16 05:02:36;;;;;;;;;;;;;;;;;;6211940;22;19915;-91
2023/05/16 05:05:02;;;;;;;;;;;;;;;;;;6237030;22;19926;-91
2023/05/16 05:07:28;;;;;;;;;;;;;;;;;;6237228;22;19924;-92
2023/05/16 05:09:55;;;;;;;;;;;;;;;;;;6239196;22;20399;-91
2023/05/16 05:12:20;;;;;;;;;;;;;;;;;;6237316;22;19934;-91
2023/05/16 05:14:46;;;;;;;;;;;;;;;;;;6216452;22;19922;-91
2023/05/16 05:17:12;;;;;;;;;;;;;;;;;;6216176;22;19954;-91
2023/05/16 05:19:38;;;;;;;;;;;;;;;;;;6237616;22;19915;-91
2023/05/16 05:22:04;;;;;;;;;;;;;;;;;;6216340;22;19922;-91
2023/05/16 05:24:30;;;;;;;;;;;;;;;;;;6213330;22;20359;-91
2023/05/16 05:26:56;;;;;;;;;;;;;;;;;;6214009;22;19923;-90
2023/05/16 05:29:22;;;;;;;;;;;;;;;;;;6212509;22;19994;-91
2023/05/16 05:31:48;;;;;;;;;;;;;;;;;;6240139;22;19919;-91
2023/05/16 05:34:14;;;;;;;;;;;;;;;;;;6240318;22;19915;-91
2023/05/16 05:36:40;;;;;;;;;;;;;;;;;;6212954;22;19981;-91
2023/05/16 05:39:06;;;;;;;;;;;;;;;;;;6240687;22;19934;-90
2023/05/16 05:41:32;;;;;;;;;;;;;;;;;;6238805;22;19915;-91
2023/05/16 05:43:58;;;;;;;;;;;;;;;;;;6216389;22;19915;-91
2023/05/16 05:46:24;;;;;;;;;;;;;;;;;;6211617;22;19934;-91
2023/05/16 05:48:50;;;;;;;;;;;;;;;;;;6216005;22;19926;-91
2023/05/16 05:51:16;;;;;;;;;;;;;;;;;;6217772;22;19915;-91
2023/05/16 05:53:43;;;;;;;;;;;;;;;;;;6235557;22;19919;-89
2023/05/16 05:56:09;;;;;;;;;;;;;;;;;;6216162;22;19995;-91
2023/05/16 05:59:01;;;;;;;;;;;;;;;;;;6217437;22;20003;-91
2023/05/16 06:01:30;;;;;;;;;;;;;;;;;;6240974;22;19919;-91
2023/05/16 06:03:58;;;;;;;;;;;;;;;;;;6216644;22;19916;-92
2023/05/16 06:06:39;;;;;;;;;;;;;;;;;;6240115;22;19959;-92
2023/05/16 06:09:14;;;;;;;;;;;;;;;;;;6219497;22;19915;-91
2023/05/16 06:11:46;;;;;;;;;;;;;;;;;;6215383;22;19992;-91
2023/05/16 06:14:15;;;;;;;;;;;;;;;;;;6218641;22;20324;-90
2023/05/16 06:16:51;;;;;;;;;;;;;;;;;;6216742;22;19933;-91
2023/05/16 06:19:30;;;;;;;;;;;;;;;;;;6217042;22;19947;-91
2023/05/16 06:24:52;;;;;;;;;;;;;;;;;;6231954;22;19918;-91
2023/05/16 06:27:29;;;;;;;;;;;;;;;;;;6220898;22;20618;-90
2023/05/16 06:29:58;;;;;;;;;;;;;;;;;;6221468;22;19964;-91
2023/05/16 06:32:31;;;;;;;;;;;;;;;;;;6206811;23;19919;-91
2023/05/16 06:35:09;;;;;;;;;;;;;;;;;;6158446;23;19916;-91
2023/05/16 06:37:41;;;;;;;;;;;;;;;;;;6156379;23;20682;-91
2023/05/16 06:40:12;;;;;;;;;;;;;;;;;;6181232;23;19947;-91
2023/05/16 06:42:43;;;;;;;;;;;;;;;;;;6156549;23;20333;-91
2023/05/16 06:45:51;;;;;;;;;;;;;;;;;;6216502;23;19916;-92
2023/05/16 06:48:23;;;;;;;;;;;;;;;;;;6159381;23;19930;-91
2023/05/16 06:51:09;;;;;;;;;;;;;;;;;;6187294;23;20582;-92
2023/05/16 06:53:44;;;;;;;;;;;;;;;;;;6154247;23;19924;-91
2023/05/16 06:59:20;;;;;;;;;;;;;;;;;;6181965;23;19926;-91
2023/05/16 07:01:47;;;;;;;;;;;;;;;;;;6158556;23;19916;-92
2023/05/16 07:04:14;;;;;;;;;;;;;;;;;;6210035;22;20245;-92
2023/05/16 07:06:40;;;;;;;;;;;;;;;;;;6242396;22;19946;-91
2023/05/16 07:09:06;;;;;;;;;;;;;;;;;;6244177;22;19941;-92
2023/05/16 07:11:32;;;;;;;;;;;;;;;;;;6217193;22;19919;-92
2023/05/16 07:13:58;;;;;;;;;;;;;;;;;;6220046;22;20328;-92
2023/05/16 07:16:27;;;;;;;;;;;;;;;;;;6216522;22;20242;-91
2023/05/16 07:18:53;;;;;;;;;;;;;;;;;;6218508;22;20298;-92
2023/05/16 07:21:19;;;;;;;;;;;;;;;;;;6244554;22;19916;-91
2023/05/16 07:23:45;;;;;;;;;;;;;;;;;;6216532;22;20596;-91
2023/05/16 07:26:11;;;;;;;;;;;;;;;;;;6243832;22;19919;-91
2023/05/16 07:28:37;;;;;;;;;;;;;;;;;;6216962;22;19923;-92
2023/05/16 07:31:03;;;;;;;;;;;;;;;;;;6245308;22;19948;-93
2023/05/16 07:33:29;;;;;;;;;;;;;;;;;;6242663;22;19919;-92
2023/05/16 07:35:55;;;;;;;;;;;;;;;;;;6219717;22;20367;-91
2023/05/16 07:38:21;;;;;;;;;;;;;;;;;;6243601;22;19938;-91
2023/05/16 07:40:47;;;;;;;;;;;;;;;;;;6244880;22;19923;-92
2023/05/16 07:43:13;;;;;;;;;;;;;;;;;;6218856;22;19923;-92
2023/05/16 07:45:39;;;;;;;;;;;;;;;;;;6241422;22;19938;-93
2023/05/16 07:48:05;;;;;;;;;;;;;;;;;;6243693;22;19963;-92
2023/05/16 07:50:31;;;;;;;;;;;;;;;;;;6244867;22;19922;-91
2023/05/16 07:52:57;;;;;;;;;;;;;;;;;;6226232;22;19970;-92
2023/05/16 07:55:23;;;;;;;;;;;;;;;;;;6257323;22;19919;-92
2023/05/16 07:57:49;;;;;;;;;;;;;;;;;;6257161;22;20414;-91
2023/05/16 08:00:15;;;;;;;;;;;;;;;;;;6233837;22;19919;-92
2023/05/16 08:02:41;;;;;;;;;;;;;;;;;;6254568;22;20323;-92
2023/05/16 08:05:07;;;;;;;;;;;;;;;;;;6245176;22;19976;-92
2023/05/16 08:07:33;;;;;;;;;;;;;;;;;;6217754;22;19927;-92
2023/05/16 08:09:59;;;;;;;;;;;;;;;;;;6244736;22;19919;-92
2023/05/16 08:12:26;;;;;;;;;;;;;;;;;;6216901;22;19923;-92
2023/05/16 08:14:52;;;;;;;;;;;;;;;;;;6220057;22;19923;-92
2023/05/16 08:17:18;;;;;;;;;;;;;;;;;;6219504;22;19919;-92
2023/05/16 08:19:45;;;;;;;;;;;;;;;;;;6218595;22;19922;-92
2023/05/16 08:22:11;;;;;;;;;;;;;;;;;;6245377;22;19915;-92
2023/05/16 08:24:37;;;;;;;;;;;;;;;;;;6242968;22;19946;-92
2023/05/16 08:27:02;;;;;;;;;;;;;;;;;;6245308;22;19920;-94
2023/05/16 08:29:29;;;;;;;;;;;;;;;;;;6219053;22;19989;-93
2023/05/16 08:31:55;;;;;;;;;;;;;;;;;;6219862;22;20341;-92
2023/05/16 08:34:21;;;;;;;;;;;;;;;;;;6218900;22;19946;-92
2023/05/16 08:36:47;;;;;;;;;;;;;;;;;;6243543;22;19965;-92
2023/05/16 08:39:13;;;;;;;;;;;;;;;;;;6219234;22;19919;-92
2023/05/16 08:41:39;;;;;;;;;;;;;;;;;;6242847;22;20437;-92
2023/05/16 08:44:05;;;;;;;;;;;;;;;;;;6217919;22;19926;-92
2023/05/16 08:46:31;;;;;;;;;;;;;;;;;;6217539;22;19965;-92
2023/05/16 08:48:57;;;;;;;;;;;;;;;;;;6243521;22;20298;-93
2023/05/16 08:51:23;;;;;;;;;;;;;;;;;;6214656;22;19924;-92
2023/05/16 08:53:50;;;;;;;;;;;;;;;;;;6220280;22;19922;-93
2023/05/16 08:56:16;;;;;;;;;;;;;;;;;;6246070;22;19915;-92
2023/05/16 08:58:42;;;;;;;;;;;;;;;;;;6242703;22;19930;-92
2023/05/16 09:01:08;;;;;;;;;;;;;;;;;;6218670;22;19990;-91
2023/05/16 09:03:34;;;;;;;;;;;;;;;;;;6243119;22;19919;-92
2023/05/16 09:06:00;;;;;;;;;;;;;;;;;;6245922;22;19916;-93
2023/05/16 09:08:26;;;;;;;;;;;;;;;;;;6217853;22;19930;-93
2023/05/16 09:10:52;;;;;;;;;;;;;;;;;;6219672;22;19930;-91
2023/05/16 09:13:18;;;;;;;;;;;;;;;;;;6246483;22;19915;-92
2023/05/16 09:15:44;;;;;;;;;;;;;;;;;;6218231;22;19981;-92
2023/05/16 09:18:11;;;;;;;;;;;;;;;;;;6219879;22;19995;-92
2023/05/16 09:20:40;;;;;;;;;;;;;;;;;;6242262;22;19919;-92
2023/05/16 09:23:06;;;;;;;;;;;;;;;;;;6218823;22;20251;-93
2023/05/16 09:25:32;;;;;;;;;;;;;;;;;;6215976;22;19922;-93
2023/05/16 09:27:58;;;;;;;;;;;;;;;;;;6219308;22;20282;-93
2023/05/16 09:30:24;;;;;;;;;;;;;;;;;;6215385;22;19950;-93
2023/05/16 09:32:50;;;;;;;;;;;;;;;;;;6244505;22;19920;-92
2023/05/16 09:35:16;;;;;;;;;;;;;;;;;;6219246;22;20286;-93
2023/05/16 09:37:42;;;;;;;;;;;;;;;;;;6216807;22;20530;-93
2023/05/16 09:40:08;;;;;;;;;;;;;;;;;;6219152;22;19915;-93
2023/05/16 09:42:34;;;;;;;;;;;;;;;;;;6216363;22;19919;-93
2023/05/16 09:45:00;;;;;;;;;;;;;;;;;;6217424;22;20344;-92
2023/05/16 09:47:26;;;;;;;;;;;;;;;;;;6241144;22;19923;-92
2023/05/16 09:49:52;;;;;;;;;;;;;;;;;;6243319;22;19919;-93
2023/05/16 09:52:18;;;;;;;;;;;;;;;;;;6218490;22;19937;-93
2023/05/16 09:54:44;;;;;;;;;;;;;;;;;;6216673;22;19925;-93
2023/05/16 09:57:10;;;;;;;;;;;;;;;;;;6217894;22;19919;-92
2023/05/16 09:59:36;;;;;;;;;;;;;;;;;;6215608;22;19919;-92
2023/05/16 10:02:02;;;;;;;;;;;;;;;;;;6243269;22;19940;-93
2023/05/16 10:04:28;;;;;;;;;;;;;;;;;;6242526;22;19969;-93
2023/05/16 10:06:56;;;;;;;;;;;;;;;;;;6218630;22;19993;-94
2023/05/16 10:09:22;;;;;;;;;;;;;;;;;;6217319;22;19925;-92
2023/05/16 10:11:48;;;;;;;;;;;;;;;;;;6217300;22;19958;-93
2023/05/16 10:14:15;;;;;;;;;;;;;;;;;;6242814;22;20378;-94
2023/05/16 10:16:41;;;;;;;;;;;;;;;;;;6216359;22;20174;-93
2023/05/16 10:19:07;;;;;;;;;;;;;;;;;;6218030;22;20302;-92
2023/05/16 10:21:34;;;;;;;;;;;;;;;;;;6241091;22;19922;-93
2023/05/16 10:24:00;;;;;;;;;;;;;;;;;;6219283;22;19926;-93
2023/05/16 10:26:26;;;;;;;;;;;;;;;;;;6216434;22;19919;-93
2023/05/16 10:28:52;;;;;;;;;;;;;;;;;;6217460;22;19991;-92
2023/05/16 10:31:18;;;;;;;;;;;;;;;;;;6243536;22;19915;-92
2023/05/16 10:33:44;;;;;;;;;;;;;;;;;;6217136;22;20252;-93
2023/05/16 10:36:10;;;;;;;;;;;;;;;;;;6243653;22;19998;-93
2023/05/16 10:38:36;;;;;;;;;;;;;;;;;;6241178;22;19915;-93
2023/05/16 10:41:02;;;;;;;;;;;;;;;;;;6220042;22;20009;-93
2023/05/16 10:43:29;;;;;;;;;;;;;;;;;;6241195;22;19920;-93
2023/05/16 10:45:55;;;;;;;;;;;;;;;;;;6220116;22;19919;-93
2023/05/16 10:48:21;;;;;;;;;;;;;;;;;;6243916;22;20379;-93
2023/05/16 10:50:47;;;;;;;;;;;;;;;;;;6217866;22;19922;-94
2023/05/16 10:53:13;;;;;;;;;;;;;;;;;;6218715;22;19919;-93
2023/05/16 10:55:39;;;;;;;;;;;;;;;;;;6215658;22;20396;-94
2023/05/16 10:58:05;;;;;;;;;;;;;;;;;;6216801;22;19922;-92
2023/05/16 11:00:31;;;;;;;;;;;;;;;;;;6241529;22;20010;-93
2023/05/16 11:02:57;;;;;;;;;;;;;;;;;;6219179;22;19950;-93
2023/05/16 11:05:24;;;;;;;;;;;;;;;;;;6216730;22;19919;-93
2023/05/16 11:07:50;;;;;;;;;;;;;;;;;;6219445;22;19977;-94
2023/05/16 11:10:16;;;;;;;;;;;;;;;;;;6245299;22;19923;-93
2023/05/16 11:12:43;;;;;;;;;;;;;;;;;;6217805;22;19923;-94
2023/05/16 11:15:10;;;;;;;;;;;;;;;;;;6243721;22;19947;-92
2023/05/16 11:17:36;;;;;;;;;;;;;;;;;;6217374;22;19958;-92
2023/05/16 11:20:02;;;;;;;;;;;;;;;;;;6218327;22;19915;-92
2023/05/16 11:22:28;;;;;;;;;;;;;;;;;;6241885;22;19919;-93
2023/05/16 11:24:55;;;;;;;;;;;;;;;;;;6220082;22;20279;-92
2023/05/16 11:27:21;;;;;;;;;;;;;;;;;;6223936;22;19923;-92
2023/05/16 11:29:47;;;;;;;;;;;;;;;;;;6252871;22;19919;-92
2023/05/16 11:32:13;;;;;;;;;;;;;;;;;;6250787;22;19915;-92
2023/05/16 11:34:39;;;;;;;;;;;;;;;;;;6224520;22;19919;-92
2023/05/16 11:37:05;;;;;;;;;;;;;;;;;;6227146;22;19925;-92
2023/05/16 11:39:31;;;;;;;;;;;;;;;;;;6221054;22;20316;-92
2023/05/16 11:41:57;;;;;;;;;;;;;;;;;;6220805;22;19916;-93
2023/05/16 11:44:23;;;;;;;;;;;;;;;;;;6218324;22;20352;-93
2023/05/16 11:46:49;;;;;;;;;;;;;;;;;;6244732;22;19958;-91
2023/05/16 11:49:15;;;;;;;;;;;;;;;;;;6219568;22;19964;-92
2023/05/16 11:51:42;;;;;;;;;;;;;;;;;;6241574;22;20419;-91
2023/05/16 11:54:08;;;;;;;;;;;;;;;;;;6244018;22;19915;-92
2023/05/16 11:56:34;;;;;;;;;;;;;;;;;;6216771;22;19923;-92
2023/05/16 11:59:00;;;;;;;;;;;;;;;;;;6217561;22;19927;-92
2023/05/16 12:01:26;;;;;;;;;;;;;;;;;;6215850;22;19927;-91
2023/05/16 12:03:52;;;;;;;;;;;;;;;;;;6242688;22;19915;-93
2023/05/16 12:06:18;;;;;;;;;;;;;;;;;;6244097;22;19994;-92
2023/05/16 12:08:44;;;;;;;;;;;;;;;;;;6241011;22;19958;-92
2023/05/16 12:11:23;;;;;;;;;;;;;;;;;;;;;
2023/05/16 12:13:49;;;;;;;;;;;;;;;;;;6243546;22;19920;-93
2023/05/16 12:16:15;;;;;;;;;;;;;;;;;;6219251;22;19972;-92
2023/05/16 12:18:41;;;;;;;;;;;;;;;;;;6241977;22;20400;-92
2023/05/16 12:21:07;;;;;;;;;;;;;;;;;;6219424;22;19954;-91
2023/05/16 12:23:33;;;;;;;;;;;;;;;;;;6216212;22;19994;-93
2023/05/16 12:26:05;;;;;;;;;;;;;;;;;;6217718;22;20337;-92
2023/05/16 12:28:36;;;;;;;;;;;;;;;;;;6217052;22;19920;-92
2023/05/16 12:31:02;;;;;;;;;;;;;;;;;;6245103;22;19915;-93
2023/05/16 12:33:28;;;;;;;;;;;;;;;;;;6215644;22;19922;-92
2023/05/16 12:35:54;;;;;;;;;;;;;;;;;;6244690;22;19922;-92
2023/05/16 12:38:20;;;;;;;;;;;;;;;;;;6217361;22;19927;-92
2023/05/16 12:40:47;;;;;;;;;;;;;;;;;;6242477;22;19973;-93
2023/05/16 12:43:13;;;;;;;;;;;;;;;;;;6217553;22;19915;-91
2023/05/16 12:45:40;;;;;;;;;;;;;;;;;;6241290;22;19920;-93
2023/05/16 12:48:06;;;;;;;;;;;;;;;;;;6218719;22;20000;-92
2023/05/16 12:50:32;;;;;;;;;;;;;;;;;;6241710;22;19915;-93
2023/05/16 12:52:58;;;;;;;;;;;;;;;;;;6217950;22;19919;-92
2023/05/16 12:55:24;;;;;;;;;;;;;;;;;;6216026;22;20543;-92
2023/05/16 12:57:50;;;;;;;;;;;;;;;;;;6243299;22;19919;-93
2023/05/16 13:00:17;;;;;;;;;;;;;;;;;;6243356;22;19946;-92
2023/05/16 13:03:05;;;;;;;;;;;;;;;;;;6217008;22;19978;-92
2023/05/16 13:05:32;;;;;;;;;;;;;;;;;;6241810;22;20243;-92
2023/05/16 13:07:58;;;;;;;;;;;;;;;;;;6242402;22;19994;-93
2023/05/16 13:10:25;;;;;;;;;;;;;;;;;;6242702;22;19923;-91
2023/05/16 13:12:52;;;;;;;;;;;;;;;;;;6244322;22;19923;-92
2023/05/16 13:15:18;;;;;;;;;;;;;;;;;;6243619;22;19915;-91
2023/05/16 13:17:44;;;;;;;;;;;;;;;;;;6242078;22;19963;-93
2023/05/16 13:20:13;;;;;;;;;;;;;;;;;;6218258;22;19923;-92
2023/05/16 13:22:42;;;;;;;;;;;;;;;;;;6217165;22;19965;-92
2023/05/16 13:25:08;;;;;;;;;;;;;;;;;;6219570;22;19915;-93
2023/05/16 13:27:34;;;;;;;;;;;;;;;;;;6217459;22;19951;-92
2023/05/16 13:30:03;;;;;;;;;;;;;;;;;;6220436;22;20001;-93
2023/05/16 13:32:29;;;;;;;;;;;;;;;;;;6217941;22;19927;-93
2023/05/16 13:34:55;;;;;;;;;;;;;;;;;;6219744;22;19925;-92
2023/05/16 13:37:24;;;;;;;;;;;;;;;;;;6218189;22;19926;-92
2023/05/16 13:39:53;;;;;;;;;;;;;;;;;;6245524;22;19922;-92
2023/05/16 13:42:22;;;;;;;;;;;;;;;;;;6219787;22;20406;-92
2023/05/16 13:44:48;;;;;;;;;;;;;;;;;;6219658;22;19926;-93
2023/05/16 13:47:14;;;;;;;;;;;;;;;;;;6244390;22;19919;-92
2023/05/16 13:49:40;;;;;;;;;;;;;;;;;;6216970;22;20468;-93
2023/05/16 13:52:07;;;;;;;;;;;;;;;;;;6243052;22;19942;-95
2023/05/16 13:54:33;;;;;;;;;;;;;;;;;;6212759;22;19926;-92
2023/05/16 13:57:00;;;;;;;;;;;;;;;;;;6215378;22;20269;-90
2023/05/16 13:59:29;;;;;;;;;;;;;;;;;;6241324;22;19915;-92
2023/05/16 14:01:55;;;;;;;;;;;;;;;;;;6218071;22;19919;-92
2023/05/16 14:04:21;;;;;;;;;;;;;;;;;;6241733;22;19925;-92
2023/05/16 14:06:48;;;;;;;;;;;;;;;;;;6242422;22;20252;-92
2023/05/16 14:09:14;;;;;;;;;;;;;;;;;;6219002;22;20252;-92
2023/05/16 14:11:40;;;;;;;;;;;;;;;;;;6218143;22;19923;-92
2023/05/16 14:14:06;;;;;;;;;;;;;;;;;;6245753;22;19919;-92
2023/05/16 14:16:34;;;;;;;;;;;;;;;;;;6215030;22;19915;-92
2023/05/16 14:19:00;;;;;;;;;;;;;;;;;;6218934;22;19969;-92
2023/05/16 14:21:26;;;;;;;;;;;;;;;;;;6240129;22;19927;-93
2023/05/16 14:23:52;;;;;;;;;;;;;;;;;;6215624;22;20232;-94
2023/05/16 14:26:24;;;;;;;;;;;;;;;;;;6218635;22;19919;-92
2023/05/16 14:29:12;;;;;;;;;;;;;;;;;;6243492;22;19965;-92
2023/05/16 14:31:51;;;;;;;;;;;;;;;;;;6242094;22;19958;-92
2023/05/16 14:34:26;;;;;;;;;;;;;;;;;;6243664;22;19923;-93
2023/05/16 14:36:55;;;;;;;;;;;;;;;;;;6218859;22;19926;-93
2023/05/16 14:39:24;;;;;;;;;;;;;;;;;;6243053;22;20742;-93
2023/05/16 14:42:03;;;;;;;;;;;;;;;;;;;;;
2023/05/16 14:44:35;;;;;;;;;;;;;;;;;;6240085;22;19965;-92
2023/05/16 14:47:10;;;;;;;;;;;;;;;;;;6219545;22;19960;-92
2023/05/16 14:49:48;;;;;;;;;;;;;;;;;;6216671;22;19919;-92
2023/05/16 14:52:17;;;;;;;;;;;;;;;;;;6219265;22;19998;-92
2023/05/16 14:54:43;;;;;;;;;;;;;;;;;;6243170;22;19969;-92
2023/05/16 14:57:19;;;;;;;;;;;;;;;;;;6256678;22;20248;-92
2023/05/16 14:59:47;;;;;;;;;;;;;;;;;;6234273;22;19919;-91
2023/05/16 15:02:25;;;;;;;;;;;;;;;;;;6235452;22;19919;-92
2023/05/16 15:04:57;;;;;;;;;;;;;;;;;;6237239;22;19955;-91
2023/05/16 15:07:30;;;;;;;;;;;;;;;;;;6230481;22;20138;-93
2023/05/16 15:10:16;;;;;;;;;;;;;;;;;;;;;
2023/05/16 15:12:54;;;;;;;;;;;;;;;;;;6178415;23;20346;-93
2023/05/16 15:15:27;;;;;;;;;;;;;;;;;;6150930;23;19924;-92
2023/05/16 15:17:58;;;;;;;;;;;;;;;;;;6152499;23;20281;-93
2023/05/16 15:20:36;;;;;;;;;;;;;;;;;;6131286;23;20289;-92
2023/05/16 15:23:05;;;;;;;;;;;;;;;;;;6153465;23;19960;-93
2023/05/16 15:25:34;;;;;;;;;;;;;;;;;;6126356;23;19915;-92
2023/05/16 15:28:06;;;;;;;;;;;;;;;;;;6128490;23;19924;-93
2023/05/16 15:30:37;;;;;;;;;;;;;;;;;;6128637;23;19931;-93
2023/05/16 15:33:22;;;;;;;;;;;;;;;;;;;;;
2023/05/16 15:36:06;;;;;;;;;;;;;;;;;;;;;
2023/05/16 15:38:35;;;;;;;;;;;;;;;;;;6123799;23;20266;-93
2023/05/16 15:41:04;;;;;;;;;;;;;;;;;;6123502;23;19962;-93
2023/05/16 15:43:33;;;;;;;;;;;;;;;;;;6154744;23;19920;-93
2023/05/16 15:46:07;;;;;;;;;;;;;;;;;;6213475;23;20331;-92
2023/05/16 15:48:43;;;;;;;;;;;;;;;;;;6211241;23;20034;-92
2023/05/16 15:51:33;;;;;;;;;;;;;;;;;;6212674;23;19916;-92
2023/05/16 15:53:58;;;;;;;;;;;;;;;;;;6211361;23;19927;-92
2023/05/16 15:56:24;;;;;;;;;;;;;;;;;;6211446;23;19919;-92
2023/05/16 15:58:58;;;;;;;;;;;;;;;;;;6222377;23;20968;-92
2023/05/16 16:01:24;;;;;;;;;;;;;;;;;;6211626;23;19973;-93
2023/05/16 16:03:53;;;;;;;;;;;;;;;;;;6212928;23;19946;-93
2023/05/16 16:06:35;;;;;;;;;;;;;;;;;;6219911;22;20486;-92
2023/05/16 16:09:04;;;;;;;;;;;;;;;;;;6245191;22;19923;-91
2023/05/16 16:11:42;;;;;;;;;;;;;;;;;;6241608;22;20343;-92
2023/05/16 16:14:14;;;;;;;;;;;;;;;;;;6245067;22;19919;-91
2023/05/16 16:16:49;;;;;;;;;;;;;;;;;;6214118;22;20435;-93
2023/05/16 16:19:18;;;;;;;;;;;;;;;;;;6245175;22;19919;-92
2023/05/16 16:21:58;;;;;;;;;;;;;;;;;;6220070;22;19926;-92
2023/05/16 16:24:24;;;;;;;;;;;;;;;;;;6241380;22;20325;-92
2023/05/16 16:26:53;;;;;;;;;;;;;;;;;;6244340;22;19919;-91
2023/05/16 16:35:25;;;;;;;;;;;;;;;;;;6238468;22;19919;-91
2023/05/16 16:37:51;;;;;;;;;;;;;;;;;;6149494;23;19987;-92
2023/05/16 16:40:27;;;;;;;;;;;;;;;;;;6150053;23;19959;-91
2023/05/16 16:42:55;;;;;;;;;;;;;;;;;;6126948;23;20292;-91
2023/05/16 16:45:21;;;;;;;;;;;;;;;;;;6149319;23;20006;-91
2023/05/16 16:47:56;;;;;;;;;;;;;;;;;;6149018;23;19927;-90
2023/05/16 16:50:24;;;;;;;;;;;;;;;;;;6148502;23;20321;-92
2023/05/16 16:52:57;;;;;;;;;;;;;;;;;;6151540;23;19999;-91
2023/05/16 16:55:31;;;;;;;;;;;;;;;;;;6123860;23;19968;-92
2023/05/16 16:58:00;;;;;;;;;;;;;;;;;;6128811;23;19963;-92
2023/05/16 17:00:36;;;;;;;;;;;;;;;;;;6125302;23;19954;-92
2023/05/16 17:03:03;;;;;;;;;;;;;;;;;;6218726;22;20038;-92